Time;durP1;ratioP1;P1;durP2;ratioP2;P2;SDS_P1;SDS_P2;PMS_P1;PMS_P2;Temp;Humidity;BMP_temperature;BMP_pressure;BME280_temperature;BME280_humidity;BME280_pressure;Samples;Min_cycle;Max_cycle;Signal;HPM_P1;HPM_P2
2023/10/02 00:02:40;;;;;;;0.40;0.20;;;;;;;13.10;97.60;100899.22;4978877;28;20549;-51
2023/10/02 00:05:05;;;;;;;0.40;0.20;;;;;;;12.99;98.01;100906.66;4992709;28;20478;-50
2023/10/02 00:07:36;;;;;;;0.40;0.20;;;;;;;12.89;97.67;100899.84;4989126;28;20462;-51
2023/10/02 00:10:04;;;;;;;0.40;0.20;;;;;;;12.94;97.23;100901.44;4976643;28;20446;-52
2023/10/02 00:12:32;;;;;;;0.40;0.20;;;;;;;12.91;97.49;100892.66;4992756;28;20453;-52
2023/10/02 00:14:59;;;;;;;0.40;0.20;;;;;;;12.82;97.48;100892.91;4984144;28;20457;-51
2023/10/02 00:17:25;;;;;;;0.40;0.20;;;;;;;12.84;98.39;100893.75;4983709;28;20556;-51
2023/10/02 00:20:05;;;;;;;0.40;0.20;;;;;;;12.85;98.72;100887.47;4992557;28;20954;-50
2023/10/02 00:22:36;;;;;;;0.40;0.20;;;;;;;12.87;99.01;100888.31;4988370;28;20454;-53
2023/10/02 00:25:06;;;;;;;0.40;0.20;;;;;;;12.87;98.33;100885.63;4967006;28;20450;-49
2023/10/02 00:27:34;;;;;;;0.40;0.20;;;;;;;12.94;98.96;100885.44;4992442;28;20939;-51
2023/10/02 00:30:02;;;;;;;0.40;0.20;;;;;;;12.89;98.98;100894.50;4974969;28;20454;-50
2023/10/02 00:32:29;;;;;;;0.40;0.20;;;;;;;13.03;99.07;100898.53;4986950;28;20457;-50
2023/10/02 00:35:00;;;;;;;0.40;0.20;;;;;;;13.02;98.67;100906.59;4992746;28;20537;-50
2023/10/02 00:37:43;;;;;;;0.40;0.20;;;;;;;12.90;99.02;100896.25;4989351;28;20494;-49
2023/10/02 00:40:18;;;;;;;0.40;0.20;;;;;;;12.90;99.41;100902.47;4992823;28;20445;-50
2023/10/02 00:42:55;;;;;;;0.40;0.20;;;;;;;12.99;99.57;100904.84;4990143;28;21017;-50
2023/10/02 00:45:23;;;;;;;0.40;0.20;;;;;;;12.86;100.00;100900.78;4967692;28;20450;-50
2023/10/02 00:47:52;;;;;;;0.40;0.20;;;;;;;12.82;100.00;100911.59;4992396;28;20480;-49
2023/10/02 00:50:21;;;;;;;0.40;0.20;;;;;;;12.78;99.61;100905.47;4992494;28;21022;-50
2023/10/02 00:52:50;;;;;;;0.40;0.20;;;;;;;12.50;100.00;100904.47;4996558;28;20453;-52
2023/10/02 00:55:20;;;;;;;0.40;0.20;;;;;;;12.68;100.00;100906.63;4996178;28;20515;-52
2023/10/02 00:57:52;;;;;;;0.40;0.20;;;;;;;12.43;100.00;100901.06;4987393;28;20849;-49
2023/10/02 01:00:30;;;;;;;0.40;0.20;;;;;;;12.40;100.00;100895.84;4996052;28;20449;-49
2023/10/02 01:02:59;;;;;;;0.40;0.20;;;;;;;12.33;100.00;100897.75;4996186;28;20827;-49
2023/10/02 01:05:41;;;;;;;0.40;0.20;;;;;;;12.53;100.00;100891.94;4996139;28;20449;-49
2023/10/02 01:08:25;;;;;;;0.40;0.20;;;;;;;12.67;100.00;100894.22;4987947;28;20517;-49
2023/10/02 01:11:02;;;;;;;0.40;0.20;;;;;;;12.56;100.00;100899.84;4983287;28;20479;-50
2023/10/02 01:13:32;;;;;;;0.40;0.20;;;;;;;12.60;99.90;100895.28;4974244;28;20973;-50
2023/10/02 01:16:02;;;;;;;0.40;0.20;;;;;;;12.52;99.60;100897.31;4990697;28;20481;-51
2023/10/02 01:18:29;;;;;;;0.40;0.20;;;;;;;12.50;99.95;100894.69;4995717;28;20530;-51
2023/10/02 01:21:01;;;;;;;0.40;0.20;;;;;;;12.42;100.00;100889.53;4996006;28;20460;-51
2023/10/02 01:23:30;;;;;;;0.40;0.20;;;;;;;12.44;100.00;100902.81;4977473;28;20453;-51
2023/10/02 01:26:00;;;;;;;2.83;2.73;;;;;;;12.48;99.80;100900.97;4996153;28;20477;-50
2023/10/02 01:28:32;;;;;;;0.40;0.20;;;;;;;12.41;99.20;100905.56;4995924;28;20461;-51
2023/10/02 01:31:01;;;;;;;6.90;5.00;;;;;;;12.42;99.37;100900.19;4982516;28;20470;-52
2023/10/02 01:33:32;;;;;;;0.40;0.27;;;;;;;12.36;98.86;100899.50;4995654;28;20990;-51
2023/10/02 01:35:59;;;;;;;0.40;0.20;;;;;;;12.44;99.63;100893.03;4995529;28;20885;-52
2023/10/02 01:38:31;;;;;;;0.40;0.20;;;;;;;12.38;98.60;100890.53;4982528;28;20576;-50
2023/10/02 01:41:06;;;;;;;0.40;0.20;;;;;;;12.38;98.27;100897.66;4995598;28;20863;-51
2023/10/02 01:43:43;;;;;;;0.40;0.20;;;;;;;12.35;99.02;100895.97;4995564;28;20476;-51
2023/10/02 01:46:17;;;;;;;0.40;0.20;;;;;;;12.33;98.75;100891.56;4982168;28;20886;-51
2023/10/02 01:48:45;;;;;;;0.40;0.20;;;;;;;12.25;98.32;100894.44;4995357;28;20461;-51
2023/10/02 01:51:25;;;;;;;0.40;0.20;;;;;;;12.23;98.48;100898.06;4989719;28;20486;-51
2023/10/02 01:54:02;;;;;;;0.40;0.20;;;;;;;12.13;99.11;100894.75;4995397;28;20453;-51
2023/10/02 01:56:32;;;;;;;0.40;0.20;;;;;;;12.12;100.00;100899.22;4995215;28;20508;-50
2023/10/02 01:59:09;;;;;;;0.40;0.20;;;;;;;12.11;99.91;100884.13;4995152;28;20543;-50
2023/10/02 02:01:53;;;;;;;0.40;0.20;;;;;;;12.07;100.00;100897.59;4995120;28;20453;-50
2023/10/02 02:04:27;;;;;;;0.40;0.20;;;;;;;12.14;99.85;100891.16;4972834;28;20867;-50
2023/10/02 02:06:56;;;;;;;3.83;2.37;;;;;;;12.12;100.00;100891.22;4988313;28;20454;-50
2023/10/02 02:09:25;;;;;;;0.40;0.20;;;;;;;12.15;100.00;100887.59;4975050;28;20455;-50
2023/10/02 02:12:07;;;;;;;2.43;1.60;;;;;;;12.24;100.00;100892.69;4992326;28;20464;-50
2023/10/02 02:14:49;;;;;;;0.40;0.20;;;;;;;12.22;100.00;100885.66;4988937;28;20453;-51
2023/10/02 02:17:22;;;;;;;0.40;0.20;;;;;;;12.23;100.00;100884.75;4963984;28;20478;-51
2023/10/02 02:19:53;;;;;;;0.40;0.20;;;;;;;12.20;99.65;100883.03;4991005;28;20488;-50
2023/10/02 02:22:25;;;;;;;0.40;0.20;;;;;;;12.28;99.54;100893.47;4994934;28;20507;-52
2023/10/02 02:24:55;;;;;;;0.40;0.20;;;;;;;12.28;99.15;100893.47;4994600;28;20516;-52
2023/10/02 02:27:22;;;;;;;0.40;0.20;;;;;;;12.29;100.00;100892.56;4994646;28;20995;-51
2023/10/02 02:29:50;;;;;;;0.40;0.20;;;;;;;12.20;100.00;100887.47;4989103;28;20537;-53
2023/10/02 02:32:19;;;;;;;0.40;0.20;;;;;;;12.18;100.00;100890.16;4976634;28;20889;-50
2023/10/02 02:34:48;;;;;;;4.23;3.83;;;;;;;12.22;100.00;100891.88;4994341;28;20573;-50
2023/10/02 02:37:16;;;;;;;0.40;0.20;;;;;;;12.27;100.00;100891.72;4991565;28;20470;-49
2023/10/02 02:39:43;;;;;;;0.40;0.20;;;;;;;12.13;100.00;100892.09;4968825;28;20493;-50
2023/10/02 02:42:18;;;;;;;0.40;0.20;;;;;;;12.16;100.00;100892.00;4994346;28;20496;-49
2023/10/02 02:44:46;;;;;;;0.40;0.20;;;;;;;12.09;100.00;100890.41;4982692;28;20463;-49
2023/10/02 02:47:14;;;;;;;0.40;0.20;;;;;;;12.24;100.00;100902.47;4972045;28;21000;-49
2023/10/02 02:49:53;;;;;;;0.40;0.20;;;;;;;12.30;100.00;100894.31;4994196;28;20823;-48
2023/10/02 02:52:32;;;;;;;0.40;0.20;;;;;;;12.24;100.00;100892.69;4994193;28;20540;-48
2023/10/02 02:55:12;;;;;;;0.37;0.20;;;;;;;12.30;100.00;100884.53;4994063;28;20540;-48
2023/10/02 02:57:45;;;;;;;0.40;0.20;;;;;;;12.41;100.00;100889.59;4994318;28;20540;-49
2023/10/02 03:00:31;;;;;;;0.40;0.20;;;;;;;12.37;100.00;100885.25;4985403;28;20478;-50
2023/10/02 03:03:00;;;;;;;0.40;0.20;;;;;;;12.33;100.00;100886.22;4994112;28;20958;-50
2023/10/02 03:05:40;;;;;;;0.40;0.20;;;;;;;12.27;99.79;100883.75;4993784;28;20946;-49
2023/10/02 03:08:14;;;;;;;0.40;0.20;;;;;;;12.21;100.00;100883.91;4985435;28;20991;-49
2023/10/02 03:10:40;;;;;;;0.40;0.20;;;;;;;12.25;100.00;100880.25;4982490;28;20456;-51
2023/10/02 03:13:15;;;;;;;0.40;0.20;;;;;;;12.08;100.00;100880.69;4981732;28;20465;-51
2023/10/02 03:15:45;;;;;;;0.60;0.30;;;;;;;12.23;99.77;100882.06;4988132;28;20934;-51
2023/10/02 03:21:22;;;;;;;0.40;0.20;;;;;;;12.12;99.30;100890.34;4978825;28;20461;-49
2023/10/02 03:23:50;;;;;;;0.40;0.20;;;;;;;12.14;98.90;100884.03;4984421;28;20828;-49
2023/10/02 03:26:37;;;;;;;0.40;0.20;;;;;;;12.10;98.93;100887.72;4992979;28;20485;-50
2023/10/02 03:29:11;;;;;;;0.40;0.20;;;;;;;11.91;100.00;100885.53;4980540;28;20520;-49
2023/10/02 03:31:43;;;;;;;0.40;0.20;;;;;;;11.90;99.99;100884.66;4968917;28;20529;-51
2023/10/02 03:34:30;;;;;;;0.40;0.20;;;;;;;11.94;99.21;100888.13;4993458;28;20456;-52
2023/10/02 03:37:09;;;;;;;0.40;0.20;;;;;;;11.86;99.58;100891.84;4992865;28;20449;-52
2023/10/02 03:39:52;;;;;;;3.70;3.50;;;;;;;11.77;99.54;100881.38;4990514;28;20584;-52
2023/10/02 03:42:25;;;;;;;0.40;0.20;;;;;;;11.80;99.05;100888.47;4988340;28;20540;-52
2023/10/02 03:44:58;;;;;;;0.40;0.20;;;;;;;11.81;98.76;100888.44;4984732;28;20450;-50
2023/10/02 03:47:30;;;;;;;2.07;1.97;;;;;;;11.78;99.90;100884.91;4989965;28;20469;-52
2023/10/02 03:50:00;;;;;;;0.40;0.20;;;;;;;11.63;100.00;100879.94;4977630;28;20449;-51
2023/10/02 03:52:30;;;;;;;0.40;0.20;;;;;;;11.59;100.00;100873.84;4993033;28;20481;-52
2023/10/02 03:54:57;;;;;;;0.40;0.20;;;;;;;11.61;98.87;100879.13;4993137;28;20461;-52
2023/10/02 04:00:18;;;;;;;0.40;0.20;;;;;;;11.53;98.63;100858.88;4965455;28;20567;-53
2023/10/02 04:02:49;;;;;;;0.40;0.20;;;;;;;11.64;98.84;100873.72;4980854;28;20489;-52
2023/10/02 04:08:21;;;;;;;0.40;0.20;;;;;;;11.45;99.03;100871.47;4985593;28;20494;-52
2023/10/02 04:10:56;;;;;;;0.40;0.20;;;;;;;11.54;99.44;100863.28;4977628;28;20888;-53
2023/10/02 04:13:31;;;;;;;6.60;3.50;;;;;;;11.49;99.44;100869.63;4985222;28;20484;-52
2023/10/02 04:18:49;;;;;;;0.40;0.20;;;;;;;11.43;99.10;100865.31;4991994;28;20529;-52
2023/10/02 04:21:22;;;;;;;0.40;0.20;;;;;;;11.30;100.00;100865.63;4994524;28;20521;-53
2023/10/02 04:23:52;;;;;;;0.40;0.20;;;;;;;11.22;100.00;100865.78;4992858;28;20450;-53
2023/10/02 04:26:21;;;;;;;0.40;0.20;;;;;;;11.12;100.00;100873.13;4992115;28;20532;-52
2023/10/02 04:28:59;;;;;;;0.40;0.20;;;;;;;11.09;100.00;100869.63;4992535;28;20471;-52
2023/10/02 04:31:29;;;;;;;1.03;1.03;;;;;;;11.17;100.00;100865.91;4979868;28;20477;-52
2023/10/02 04:36:43;;;;;;;0.40;0.20;;;;;;;11.17;100.00;100870.34;4971345;28;20544;-52
2023/10/02 04:42:12;;;;;;;0.40;0.20;;;;;;;11.04;99.18;100879.50;4992710;28;20560;-52
2023/10/02 04:44:46;;;;;;;0.40;0.20;;;;;;;10.97;100.00;100884.09;4962155;28;20537;-53
2023/10/02 04:47:17;;;;;;;0.40;0.20;;;;;;;10.91;99.89;100884.19;4988174;28;20469;-52
2023/10/02 04:55:40;;;;;;;0.40;0.27;;;;;;;10.91;99.42;100886.84;4992394;28;20445;-51
2023/10/02 04:58:20;;;;;;;0.40;0.20;;;;;;;10.88;99.37;100884.25;4975353;28;20469;-52
2023/10/02 05:03:38;;;;;;;0.40;0.20;;;;;;;10.87;99.84;100883.38;4992178;28;20481;-52
2023/10/02 05:06:06;;;;;;;0.63;0.63;;;;;;;10.82;100.00;100876.38;4992018;28;20949;-51
2023/10/02 05:08:37;;;;;;;0.40;0.20;;;;;;;10.89;100.00;100872.72;4980451;28;20557;-52
2023/10/02 05:11:50;;;;;;;0.33;0.20;;;;;;;10.91;100.00;100881.53;4984517;28;20548;-52
2023/10/02 05:16:34;;;;;;;0.40;0.20;;;;;;;11.05;99.48;100881.25;4987443;28;20636;-52
2023/10/02 05:19:05;;;;;;;0.40;0.20;;;;;;;11.06;99.71;100881.22;4992530;28;20493;-52
2023/10/02 05:21:36;;;;;;;0.40;0.20;;;;;;;11.12;99.32;100881.09;4992422;28;20452;-52
2023/10/02 05:24:11;;;;;;;0.30;0.20;;;;;;;11.10;99.25;100879.34;4992572;28;20445;-52
2023/10/02 05:26:44;;;;;;;0.30;0.20;;;;;;;11.08;99.96;100882.06;4992238;28;20517;-52
2023/10/02 05:29:17;;;;;;;0.40;0.20;;;;;;;10.92;100.00;100875.31;4991774;28;21143;-53
2023/10/02 05:31:45;;;;;;;0.40;0.20;;;;;;;10.98;100.00;100877.84;4980793;28;20520;-53
2023/10/02 05:34:14;;;;;;;0.30;0.20;;;;;;;11.06;100.00;100880.34;4992193;28;20457;-52
2023/10/02 05:39:31;;;;;;;0.40;0.20;;;;;;;10.96;100.00;100882.31;4989472;28;21020;-52
2023/10/02 05:42:05;;;;;;;0.40;0.20;;;;;;;11.62;99.84;100894.19;4976378;28;20958;-52
2023/10/02 05:44:33;;;;;;;0.40;0.20;;;;;;;11.24;99.88;100882.63;4964122;28;20456;-53
2023/10/02 05:47:07;;;;;;;0.40;0.20;;;;;;;11.30;99.63;100889.59;4989499;28;20831;-52
2023/10/02 05:49:36;;;;;;;0.40;0.20;;;;;;;11.28;99.56;100884.31;4995616;28;20441;-52
2023/10/02 05:52:07;;;;;;;0.40;0.20;;;;;;;11.32;99.44;100887.75;4995320;28;20449;-51
2023/10/02 05:54:45;;;;;;;0.30;0.20;;;;;;;11.22;99.62;100887.94;4995629;28;20445;-52
2023/10/02 05:57:14;;;;;;;0.37;0.20;;;;;;;11.30;99.78;100890.47;4995316;28;20515;-52
2023/10/02 05:59:48;;;;;;;0.40;0.20;;;;;;;11.37;99.57;100897.38;4995268;28;20489;-53
2023/10/02 06:02:23;;;;;;;1.13;1.13;;;;;;;11.44;100.00;100896.34;4995180;28;20479;-52
2023/10/02 06:04:54;;;;;;;0.40;0.20;;;;;;;11.37;100.00;100894.72;4995241;28;20453;-53
2023/10/02 06:10:09;;;;;;;0.30;0.20;;;;;;;11.45;100.00;100897.22;4979332;28;20517;-52
2023/10/02 06:12:36;;;;;;;0.40;0.20;;;;;;;11.58;100.00;100896.91;4995155;28;20465;-52
2023/10/02 06:15:09;;;;;;;0.40;0.20;;;;;;;11.71;100.00;100901.97;4989282;28;20468;-52
2023/10/02 06:17:36;;;;;;;0.40;0.20;;;;;;;11.75;100.00;100904.50;4995112;28;20461;-53
2023/10/02 06:20:17;;;;;;;0.37;0.20;;;;;;;11.88;100.00;100904.25;4994982;28;20489;-52
2023/10/02 06:22:47;;;;;;;0.37;0.20;;;;;;;12.02;100.00;100905.66;4994023;28;20514;-52
2023/10/02 06:25:18;;;;;;;0.40;0.40;;;;;;;12.16;100.00;100906.19;4980223;28;20454;-52
2023/10/02 06:27:47;;;;;;;0.40;0.20;;;;;;;12.22;100.00;100904.31;4987580;28;20477;-53
2023/10/02 06:30:16;;;;;;;0.30;0.20;;;;;;;12.38;100.00;100911.00;4969297;28;20545;-52
2023/10/02 06:32:53;;;;;;;0.30;0.20;;;;;;;12.52;99.73;100913.31;4953011;28;20498;-52
2023/10/02 06:35:21;;;;;;;0.40;0.20;;;;;;;12.49;99.86;100914.25;4994423;28;20472;-52
2023/10/02 06:37:52;;;;;;;0.40;0.20;;;;;;;12.52;100.00;100913.31;4990043;28;20509;-52
2023/10/02 06:40:23;;;;;;;0.40;0.20;;;;;;;12.59;99.82;100913.06;4982779;28;20486;-52
2023/10/02 06:42:52;;;;;;;0.40;0.20;;;;;;;12.63;99.66;100916.56;4990468;28;21039;-52
2023/10/02 06:45:21;;;;;;;0.40;0.20;;;;;;;12.77;100.00;100914.41;4951389;28;20478;-52
2023/10/02 06:47:50;;;;;;;0.40;0.20;;;;;;;12.87;100.00;100912.31;4994207;28;20469;-51
2023/10/02 06:50:31;;;;;;;0.40;0.20;;;;;;;12.93;99.90;100917.50;4994282;28;20449;-52
2023/10/02 06:52:58;;;;;;;0.40;0.20;;;;;;;13.19;99.79;100909.66;4972954;28;20500;-52
2023/10/02 06:55:26;;;;;;;0.40;0.20;;;;;;;13.18;99.86;100920.34;4994281;28;20460;-52
2023/10/02 06:57:53;;;;;;;0.40;0.20;;;;;;;13.36;99.90;100918.97;4986872;28;20593;-52
2023/10/02 07:00:21;;;;;;;0.40;0.20;;;;;;;13.46;99.33;100907.09;4994064;28;20493;-52
2023/10/02 07:02:57;;;;;;;0.40;0.20;;;;;;;13.46;99.16;100904.41;4990447;28;20527;-51
2023/10/02 07:05:32;;;;;;;0.40;0.20;;;;;;;13.67;99.22;100913.56;4989852;28;20473;-52
2023/10/02 07:08:17;;;;;;;0.40;0.20;;;;;;;13.75;98.88;100903.50;4980148;28;20572;-50
2023/10/02 07:10:50;;;;;;;0.40;0.20;;;;;;;13.80;99.04;100914.91;4982927;28;20544;-50
2023/10/02 07:13:20;;;;;;;0.40;0.20;;;;;;;13.75;99.76;100911.53;4986619;28;20500;-50
2023/10/02 07:15:55;;;;;;;0.40;0.20;;;;;;;13.77;99.91;100910.53;4978087;28;21002;-49
2023/10/02 07:18:35;;;;;;;0.40;0.20;;;;;;;13.84;100.00;100904.09;4981193;28;20500;-50
2023/10/02 07:21:01;;;;;;;0.40;0.20;;;;;;;13.94;100.00;100910.00;4990797;28;20493;-50
2023/10/02 07:23:30;;;;;;;0.40;0.20;;;;;;;14.19;100.00;100910.94;4965023;28;20453;-50
2023/10/02 07:25:58;;;;;;;0.40;0.20;;;;;;;14.29;100.00;100908.84;4982935;28;20459;-50
2023/10/02 07:28:24;;;;;;;0.43;0.43;;;;;;;14.48;99.98;100911.78;4978856;28;20489;-50
2023/10/02 07:30:51;;;;;;;0.40;0.20;;;;;;;14.74;99.08;100906.38;4975852;28;20843;-50
2023/10/02 07:33:20;;;;;;;0.40;0.20;;;;;;;14.81;99.56;100910.59;4987989;28;20537;-50
2023/10/02 07:35:54;;;;;;;0.40;0.20;;;;;;;15.30;97.77;100910.56;4988265;28;20457;-49
2023/10/02 07:38:22;;;;;;;2.30;2.10;;;;;;;15.59;96.38;100899.63;4990261;28;20855;-49
2023/10/02 07:40:49;;;;;;;0.40;0.30;;;;;;;15.31;97.77;100912.31;4993382;28;20572;-50
2023/10/02 07:43:18;;;;;;;0.40;0.20;;;;;;;15.30;97.66;100903.41;4993245;28;21008;-50
2023/10/02 07:45:56;;;;;;;0.40;0.30;;;;;;;15.61;96.75;100907.63;4975808;28;20521;-50
2023/10/02 07:48:25;;;;;;;0.40;0.20;;;;;;;15.61;95.84;100912.97;4985533;28;20474;-50
2023/10/02 07:50:51;;;;;;;0.40;0.20;;;;;;;15.80;95.35;100910.44;4982753;28;20460;-50
2023/10/02 07:53:17;;;;;;;0.40;0.20;;;;;;;15.57;96.82;100909.50;4977034;28;20493;-49
2023/10/02 07:55:47;;;;;;;0.40;0.20;;;;;;;16.08;95.73;100910.19;4979093;28;20449;-49
2023/10/02 07:58:17;;;;;;;0.40;0.20;;;;;;;16.15;95.25;100909.88;4972832;28;20988;-49
2023/10/02 08:00:43;;;;;;;0.40;0.20;;;;;;;16.29;94.24;100911.97;4974752;28;21013;-49
2023/10/02 08:06:23;;;;;;;0.40;0.20;;;;;;;16.63;93.01;100913.22;4943141;28;20462;-49
2023/10/02 08:11:58;;;;;;;0.40;0.20;;;;;;;16.48;93.39;100902.22;4937610;29;20459;-50
2023/10/02 08:14:43;;;;;;;0.40;0.20;;;;;;;16.15;95.28;100907.19;4980171;28;20894;-49
2023/10/02 08:19:59;;;;;;;0.40;0.20;;;;;;;16.53;93.97;100910.94;4980479;28;20531;-50
2023/10/02 08:22:37;;;;;;;0.40;0.20;;;;;;;16.86;92.77;100916.69;4983175;28;20520;-50
2023/10/02 08:25:12;;;;;;;0.40;0.20;;;;;;;16.93;93.65;100903.84;4978431;28;20457;-50
2023/10/02 08:27:56;;;;;;;0.40;0.20;;;;;;;16.93;93.27;100913.72;4966958;28;20473;-50
2023/10/02 08:30:42;;;;;;;0.40;0.20;;;;;;;17.08;92.63;100904.97;4982049;28;20494;-52
2023/10/02 08:33:09;;;;;;;0.60;0.50;;;;;;;17.13;93.42;100913.66;4981174;28;20475;-49
2023/10/02 08:36:01;;;;;;;0.40;0.20;;;;;;;17.32;92.73;100914.59;4966974;28;20447;-50
2023/10/02 08:38:28;;;;;;;0.40;0.20;;;;;;;17.52;92.32;100913.63;4981434;28;21017;-51
2023/10/02 08:40:59;;;;;;;0.40;0.20;;;;;;;17.37;91.86;100909.84;4986931;28;20501;-52
2023/10/02 08:43:32;;;;;;;0.40;0.20;;;;;;;17.75;90.80;100913.47;4989527;28;20460;-50
2023/10/02 08:45:59;;;;;;;0.40;0.20;;;;;;;17.81;91.56;100912.28;4958380;28;20544;-50
2023/10/02 08:48:26;;;;;;;0.40;0.20;;;;;;;18.08;89.94;100911.88;4975865;28;20474;-50
2023/10/02 08:50:58;;;;;;;0.40;0.20;;;;;;;17.68;90.97;100909.34;4983744;28;20446;-53
2023/10/02 08:53:26;;;;;;;0.40;0.20;;;;;;;17.80;90.46;100894.41;4992476;28;20460;-50
2023/10/02 08:56:21;;;;;;;0.40;0.20;;;;;;;18.22;88.96;100899.47;4992370;28;20453;-50
2023/10/02 08:59:15;;;;;;;0.40;0.20;;;;;;;18.47;88.71;100893.72;4988068;28;20452;-50
2023/10/02 09:01:37;;;;;;;0.40;0.20;;;;;;;18.75;87.45;100885.09;4968810;28;20556;-50
2023/10/02 09:09:54;;;;;;;1.70;1.50;;;;;;;18.80;87.14;100887.56;4955017;28;20451;-50
2023/10/02 09:12:22;;;;;;;0.40;0.20;;;;;;;18.97;86.69;100892.03;4971578;28;20481;-50
2023/10/02 09:14:51;;;;;;;0.40;0.20;;;;;;;19.13;86.15;100888.44;4989673;28;20541;-50
2023/10/02 09:17:19;;;;;;;0.40;0.20;;;;;;;19.09;86.79;100884.16;4996046;28;20473;-50
2023/10/02 09:20:02;;;;;;;0.40;0.20;;;;;;;18.90;86.96;100880.72;4995952;28;20571;-50
2023/10/02 09:22:37;;;;;;;0.40;0.20;;;;;;;19.35;86.17;100876.47;4996065;28;20449;-50
2023/10/02 09:25:09;;;;;;;0.40;0.20;;;;;;;19.41;85.06;100876.13;4996281;28;20445;-50
2023/10/02 09:27:54;;;;;;;0.40;0.20;;;;;;;19.52;84.99;100879.09;4996003;28;20649;-50
2023/10/02 09:30:28;;;;;;;0.40;0.20;;;;;;;19.57;85.06;100876.16;4986906;28;20493;-50
2023/10/02 09:32:54;;;;;;;0.40;0.20;;;;;;;20.02;84.23;100875.38;4993497;28;20450;-52
2023/10/02 09:35:29;;;;;;;0.40;0.20;;;;;;;20.09;83.51;100863.25;4996202;28;20792;-52
2023/10/02 09:38:17;;;;;;;0.40;0.20;;;;;;;20.21;83.16;100862.53;4976107;28;20487;-53
2023/10/02 09:40:56;;;;;;;0.50;0.40;;;;;;;20.38;82.54;100859.66;4995738;28;20467;-54
2023/10/02 09:43:24;;;;;;;0.40;0.20;;;;;;;20.43;82.09;100848.66;4996145;28;20447;-52
2023/10/02 09:45:56;;;;;;;0.40;0.20;;;;;;;20.67;81.20;100848.97;4982899;28;20804;-52
2023/10/02 09:48:47;;;;;;;0.40;0.20;;;;;;;20.83;81.05;100840.75;4995948;28;20444;-52
2023/10/02 09:51:25;;;;;;;0.40;0.20;;;;;;;20.65;80.49;100835.53;4995753;28;20876;-53
2023/10/02 09:54:05;;;;;;;0.50;0.20;;;;;;;20.75;79.55;100835.00;4995267;28;20424;-52
2023/10/02 09:57:04;;;;;;;0.50;0.30;;;;;;;20.80;79.38;100833.72;4995539;28;20537;-53
2023/10/02 09:59:48;;;;;;;0.50;0.20;;;;;;;21.26;79.04;100842.56;4975316;28;20420;-52
2023/10/02 10:05:23;;;;;;;0.40;0.20;;;;;;;21.45;78.79;100841.34;4995507;28;20514;-54
2023/10/02 10:08:18;;;;;;;0.40;0.30;;;;;;;21.54;78.70;100843.47;4977689;28;20554;-54
2023/10/02 10:10:49;;;;;;;0.47;0.20;;;;;;;21.24;79.71;100835.44;4964528;28;20967;-53
2023/10/02 10:13:46;;;;;;;0.40;0.20;;;;;;;21.57;78.93;100841.44;4991453;28;20827;-53
2023/10/02 10:16:18;;;;;;;0.50;0.50;;;;;;;21.73;77.59;100829.59;4988762;28;20446;-51
2023/10/02 10:22:01;;;;;;;0.40;0.20;;;;;;;22.01;74.43;100826.75;4995013;28;20550;-54
2023/10/02 10:24:30;;;;;;;0.40;0.20;;;;;;;22.20;73.27;100814.72;4993767;28;20446;-52
2023/10/02 10:26:57;;;;;;;0.40;0.20;;;;;;;22.42;71.88;100812.25;4994669;28;20519;-53
2023/10/02 10:29:37;;;;;;;0.50;0.20;;;;;;;22.56;71.80;100806.75;4992854;28;20540;-53
2023/10/02 10:32:24;;;;;;;0.50;0.20;;;;;;;22.36;72.09;100815.41;4985739;28;20461;-53
2023/10/02 10:35:11;;;;;;;0.43;0.20;;;;;;;22.48;71.08;100814.56;4994723;28;20540;-53
2023/10/02 10:37:40;;;;;;;2.30;0.90;;;;;;;22.54;72.46;100815.97;4991710;28;20452;-53
2023/10/02 10:40:43;;;;;;;0.47;0.27;;;;;;;22.57;69.73;100800.34;4994422;28;20471;-53
2023/10/02 10:43:00;;;;;;;0.40;0.20;;;;;;;22.69;69.38;100806.75;4994431;28;20522;-53
2023/10/02 10:45:33;;;;;;;0.50;0.30;;;;;;;22.94;69.00;100795.06;4981865;28;20834;-54
2023/10/02 10:48:00;;;;;;;0.50;0.30;;;;;;;23.17;69.40;100786.13;4994365;28;20444;-54
2023/10/02 10:50:29;;;;;;;0.40;0.20;;;;;;;23.35;68.95;100795.63;4992522;28;21006;-54
2023/10/02 10:53:25;;;;;;;0.50;0.20;;;;;;;23.41;68.07;100790.72;4983894;28;20515;-54
2023/10/02 10:55:47;;;;;;;0.50;0.30;;;;;;;23.21;67.11;100782.19;4994104;28;20977;-54
2023/10/02 10:58:29;;;;;;;0.40;0.20;;;;;;;23.17;68.38;100783.41;4994013;28;20474;-54
2023/10/02 11:00:58;;;;;;;0.50;0.20;;;;;;;23.57;68.30;100783.16;4994136;28;20580;-54
2023/10/02 11:03:26;;;;;;;0.47;0.20;;;;;;;23.77;67.68;100785.28;4994141;28;20461;-54
2023/10/02 11:06:02;;;;;;;0.50;0.30;;;;;;;23.54;67.09;100777.97;4993825;28;20428;-54
2023/10/02 11:08:33;;;;;;;0.50;0.20;;;;;;;23.40;66.78;100772.69;4991358;28;20964;-52
2023/10/02 11:11:19;;;;;;;0.50;0.30;;;;;;;23.42;67.89;100768.00;4974568;28;20958;-53
2023/10/02 11:13:58;;;;;;;0.50;0.20;;;;;;;23.53;66.75;100778.94;4993961;28;20975;-54
2023/10/02 11:16:34;;;;;;;0.40;0.30;;;;;;;23.63;66.72;100772.75;4983979;28;20539;-53
2023/10/02 11:22:15;;;;;;;0.50;0.20;;;;;;;24.07;66.30;100762.19;4993618;28;20471;-52
2023/10/02 11:25:17;;;;;;;0.50;0.40;;;;;;;24.15;64.95;100752.47;4993495;28;20424;-54
2023/10/02 11:27:57;;;;;;;0.50;0.20;;;;;;;24.41;65.51;100745.03;4993446;28;20472;-54
2023/10/02 11:30:31;;;;;;;0.50;0.20;;;;;;;24.42;66.38;100745.88;4983516;28;20427;-54
2023/10/02 11:33:04;;;;;;;0.50;0.20;;;;;;;24.58;64.99;100745.53;4991514;28;20460;-54
2023/10/02 11:35:38;;;;;;;0.50;0.20;;;;;;;24.53;63.60;100737.72;4993279;28;20420;-53
2023/10/02 11:38:09;;;;;;;0.50;0.20;;;;;;;24.46;63.40;100728.34;4990664;28;20483;-54
2023/10/02 11:40:37;;;;;;;0.40;0.20;;;;;;;24.50;64.07;100724.38;4981021;28;20597;-54
2023/10/02 11:43:03;;;;;;;0.50;0.20;;;;;;;24.75;63.01;100721.44;4978173;28;20472;-54
2023/10/02 11:45:32;;;;;;;0.50;0.20;;;;;;;24.67;62.21;100721.19;4980648;28;21022;-54
2023/10/02 11:47:59;;;;;;;0.50;0.20;;;;;;;24.44;63.46;100724.88;4993006;28;20448;-53
2023/10/02 11:50:25;;;;;;;0.50;0.30;;;;;;;24.91;63.90;100722.91;4993111;28;20453;-54
2023/10/02 11:52:52;;;;;;;0.50;0.27;;;;;;;24.91;62.07;100710.16;4993467;28;20479;-54
2023/10/02 11:55:19;;;;;;;0.50;0.30;;;;;;;24.94;63.02;100703.59;4993168;28;20454;-54
2023/10/02 11:57:51;;;;;;;0.50;0.20;;;;;;;25.41;61.98;100694.25;4993093;28;20843;-54
2023/10/02 12:00:20;;;;;;;0.50;0.30;;;;;;;25.30;62.52;100689.72;4993091;28;20453;-54
2023/10/02 12:02:49;;;;;;;0.50;0.30;;;;;;;25.50;61.35;100690.78;4992916;28;20485;-53
2023/10/02 12:05:19;;;;;;;0.50;0.23;;;;;;;25.31;61.56;100690.56;4992965;28;20453;-53
2023/10/02 12:07:46;;;;;;;0.50;0.30;;;;;;;25.45;60.95;100687.56;4992949;28;20474;-52
2023/10/02 12:10:15;;;;;;;0.67;0.60;;;;;;;25.39;60.11;100688.09;4976997;28;20919;-54
2023/10/02 12:12:46;;;;;;;0.50;0.20;;;;;;;25.17;61.13;100689.00;4984516;28;20476;-53
2023/10/02 12:15:15;;;;;;;0.50;0.20;;;;;;;25.50;60.24;100681.75;4986266;28;20796;-54
2023/10/02 12:17:43;;;;;;;0.50;0.30;;;;;;;25.47;60.29;100679.25;4993001;28;20444;-54
2023/10/02 12:20:12;;;;;;;0.50;0.20;;;;;;;25.75;61.17;100677.78;4992642;28;20984;-54
2023/10/02 12:22:40;;;;;;;0.50;0.20;;;;;;;25.61;59.47;100670.78;4992951;28;20464;-54
2023/10/02 12:25:09;;;;;;;0.50;0.20;;;;;;;25.75;60.08;100667.75;4992834;28;20449;-55
2023/10/02 12:27:39;;;;;;;0.50;0.30;;;;;;;25.86;60.12;100662.25;4992893;28;20473;-54
2023/10/02 12:30:11;;;;;;;0.50;0.43;;;;;;;25.95;61.34;100660.59;4985008;28;20454;-55
2023/10/02 12:32:38;;;;;;;0.50;0.23;;;;;;;26.03;59.16;100649.88;4988158;28;21045;-54
2023/10/02 12:35:06;;;;;;;0.50;0.30;;;;;;;26.25;59.22;100643.41;4992876;28;20840;-54
2023/10/02 12:37:34;;;;;;;0.50;0.20;;;;;;;26.35;59.52;100646.19;4989263;28;20474;-53
2023/10/02 12:40:00;;;;;;;0.60;0.50;;;;;;;26.24;59.81;100633.53;4992700;28;20457;-54
2023/10/02 12:42:29;;;;;;;0.50;0.20;;;;;;;26.11;59.69;100631.00;4992147;28;20489;-54
2023/10/02 12:44:56;;;;;;;0.50;0.20;;;;;;;26.11;58.56;100633.75;4983587;28;20479;-55
2023/10/02 12:47:22;;;;;;;0.50;0.23;;;;;;;26.16;58.45;100620.56;4991083;28;20480;-55
2023/10/02 12:49:54;;;;;;;0.50;0.23;;;;;;;26.11;58.71;100627.44;4996693;28;21025;-55